Time;durP1;ratioP1;P1;durP2;ratioP2;P2;SDS_P1;SDS_P2;PMS_P1;PMS_P2;Temp;Humidity;BMP_temperature;BMP_pressure;BME280_temperature;BME280_humidity;BME280_pressure;Samples;Min_cycle;Max_cycle;Signal;HPM_P1;HPM_P2
2022/09/02 00:01:16;;;;;;;1.45;0.63;;;16.30;99.90;;;;;;4862556;28;20356;-81
2022/09/02 00:03:43;;;;;;;1.25;0.50;;;16.20;99.90;;;;;;4849376;28;20420;-81
2022/09/02 00:06:13;;;;;;;1.98;0.77;;;16.20;99.90;;;;;;4860224;28;20594;-81
2022/09/02 00:08:45;;;;;;;0.63;0.40;;;16.20;99.90;;;;;;4866969;28;20360;-81
2022/09/02 00:11:28;;;;;;;0.70;0.50;;;16.20;99.90;;;;;;4863673;28;20331;-82
2022/09/02 00:13:55;;;;;;;1.58;0.80;;;16.10;99.90;;;;;;4864616;28;20201;-82
2022/09/02 00:16:23;;;;;;;2.05;0.80;;;16.10;99.90;;;;;;4864027;28;20253;-81
2022/09/02 00:18:51;;;;;;;3.03;0.57;;;16.10;99.90;;;;;;4857967;28;20328;-82
2022/09/02 00:21:28;;;;;;;1.85;0.60;;;16.10;99.90;;;;;;4883532;28;20869;-82
2022/09/02 00:23:56;;;;;;;;;;;16.10;99.90;;;;;;4862674;28;20581;-81
2022/09/02 00:26:26;;;;;;;1.40;0.65;;;16.00;99.90;;;;;;4866781;28;20230;-82
2022/09/02 00:28:52;;;;;;;3.90;0.63;;;16.00;99.90;;;;;;4844113;29;20473;-82
2022/09/02 00:31:19;;;;;;;0.90;0.55;;;16.00;99.90;;;;;;4866515;28;20340;-82
2022/09/02 00:33:55;;;;;;;1.75;0.80;;;16.00;99.90;;;;;;4866169;28;20407;-82
2022/09/02 00:36:21;;;;;;;2.70;0.50;;;15.90;99.90;;;;;;4877343;28;20286;-81
2022/09/02 00:38:48;;;;;;;2.78;0.70;;;15.90;99.90;;;;;;4861599;28;20366;-82
2022/09/02 00:41:22;;;;;;;4.57;0.65;;;15.90;99.90;;;;;;4867292;28;20690;-81
2022/09/02 00:44:01;;;;;;;1.05;0.60;;;15.80;99.90;;;;;;4866326;28;21009;-82
2022/09/02 00:46:29;;;;;;;1.00;0.65;;;15.90;99.90;;;;;;4842466;28;20346;-82
2022/09/02 00:49:31;;;;;;;1.08;0.50;;;15.70;99.90;;;;;;4875674;28;20198;-82
2022/09/02 00:52:03;;;;;;;1.13;0.55;;;15.80;99.90;;;;;;4843316;28;20793;-81
2022/09/02 00:54:33;;;;;;;3.53;0.68;;;15.70;99.90;;;;;;4850814;28;20412;-81
2022/09/02 00:57:18;;;;;;;1.60;0.80;;;15.70;99.90;;;;;;4889611;28;20830;-82
2022/09/02 01:00:20;;;;;;;1.20;0.60;;;15.70;99.90;;;;;;4873037;28;20234;-80
2022/09/02 01:02:53;;;;;;;1.30;0.63;;;15.70;99.90;;;;;;4876355;28;20245;-81
2022/09/02 01:05:22;;;;;;;1.40;0.70;;;15.50;99.90;;;;;;4859667;28;20257;-82
2022/09/02 01:07:53;;;;;;;1.40;0.40;;;15.60;99.90;;;;;;4858975;28;20460;-82
2022/09/02 01:10:22;;;;;;;1.55;0.55;;;15.60;99.90;;;;;;4856952;28;20573;-81
2022/09/02 01:12:53;;;;;;;1.17;0.70;;;15.60;99.90;;;;;;4852438;28;20952;-81
2022/09/02 01:15:19;;;;;;;1.95;0.75;;;15.50;99.90;;;;;;4848771;28;20050;-81
2022/09/02 01:17:46;;;;;;;;;;;15.50;99.90;;;;;;4863831;28;20342;-81
2022/09/02 01:20:16;;;;;;;0.75;0.52;;;15.50;99.90;;;;;;4870184;28;20856;-82
2022/09/02 01:22:44;;;;;;;0.93;0.65;;;15.50;99.90;;;;;;4866718;28;20392;-81
2022/09/02 01:25:21;;;;;;;1.05;0.60;;;15.40;99.90;;;;;;4866193;28;20226;-81
2022/09/02 01:27:48;;;;;;;1.85;0.88;;;15.40;99.90;;;;;;4840966;28;20408;-81
2022/09/02 01:30:23;;;;;;;2.17;0.73;;;15.30;99.90;;;;;;4859569;28;20755;-81
2022/09/02 01:32:53;;;;;;;1.90;1.23;;;15.40;99.90;;;;;;4871283;28;20410;-81
2022/09/02 01:35:19;;;;;;;0.77;0.60;;;15.30;99.90;;;;;;4837256;29;20385;-80
2022/09/02 01:37:48;;;;;;;0.85;0.60;;;15.20;99.90;;;;;;4881478;28;20037;-87
2022/09/02 01:40:16;;;;;;;1.35;0.93;;;15.30;99.90;;;;;;4955965;28;20572;-82
2022/09/02 01:42:44;;;;;;;0.95;0.60;;;15.30;99.90;;;;;;4958391;28;20374;-82
2022/09/02 01:45:14;;;;;;;1.05;0.55;;;15.30;99.90;;;;;;4970836;28;20046;-83
2022/09/02 01:47:42;;;;;;;1.65;0.77;;;15.20;99.90;;;;;;4955887;28;20399;-83
2022/09/02 01:50:09;;;;;;;1.33;0.65;;;15.20;99.90;;;;;;4957608;28;20214;-84
2022/09/02 01:52:35;;;;;;;0.93;0.60;;;15.20;99.90;;;;;;4944811;28;20054;-84
2022/09/02 01:55:01;;;;;;;5.57;0.88;;;15.20;99.90;;;;;;4954513;28;20038;-83
2022/09/02 01:57:32;;;;;;;1.70;0.80;;;15.20;99.90;;;;;;4946677;28;20057;-83
2022/09/02 02:00:00;;;;;;;1.50;0.60;;;15.10;99.90;;;;;;4950264;28;20038;-82
2022/09/02 02:02:29;;;;;;;1.95;0.65;;;15.10;99.90;;;;;;4944715;28;20046;-83
2022/09/02 02:04:55;;;;;;;2.38;0.70;;;15.10;99.90;;;;;;4964235;28;20122;-83
2022/09/02 02:07:21;;;;;;;1.65;0.80;;;15.00;99.90;;;;;;4950331;28;20134;-83
2022/09/02 02:09:47;;;;;;;;;;;15.00;99.90;;;;;;4948869;28;20518;-83
2022/09/02 02:12:14;;;;;;;1.60;0.80;;;15.00;99.90;;;;;;4960573;28;19943;-83
2022/09/02 02:14:43;;;;;;;1.60;0.60;;;15.00;99.90;;;;;;4964793;28;20039;-83
2022/09/02 02:17:20;;;;;;;0.82;0.60;;;14.90;99.90;;;;;;4965594;28;20079;-84
2022/09/02 02:20:04;;;;;;;2.03;0.70;;;14.90;99.90;;;;;;4958861;28;20232;-83
2022/09/02 02:22:36;;;;;;;1.50;0.60;;;14.90;99.90;;;;;;4949729;28;20043;-84
2022/09/02 02:25:04;;;;;;;1.08;0.80;;;14.90;99.90;;;;;;4951560;28;20088;-84
2022/09/02 02:27:42;;;;;;;;;;;;;;;;;;;;;
2022/09/02 02:30:29;;;;;;;2.13;0.93;;;14.90;99.90;;;;;;4959606;28;20050;-84
2022/09/02 02:33:01;;;;;;;1.17;0.70;;;14.90;99.90;;;;;;4960933;28;20058;-84
2022/09/02 02:35:42;;;;;;;1.63;0.90;;;14.70;99.90;;;;;;4970027;28;20272;-83
2022/09/02 02:38:15;;;;;;;1.90;0.60;;;14.80;99.90;;;;;;4963314;28;20054;-84
2022/09/02 02:40:49;;;;;;;1.37;0.50;;;14.80;99.90;;;;;;4953033;28;20080;-84
2022/09/02 02:43:14;;;;;;;1.20;0.65;;;14.70;99.90;;;;;;4948332;28;20039;-82
2022/09/02 02:45:50;;;;;;;1.38;0.60;;;14.80;99.90;;;;;;4971467;28;20085;-84
2022/09/02 02:48:26;;;;;;;1.30;0.77;;;14.70;99.90;;;;;;4952387;28;20043;-83
2022/09/02 02:50:52;;;;;;;1.40;0.73;;;14.80;99.90;;;;;;4965153;28;20519;-83
2022/09/02 02:53:33;;;;;;;;;;;;;;;;;;;;;
2022/09/02 02:56:06;;;;;;;1.60;0.80;;;14.70;99.90;;;;;;4964533;28;20038;-84
2022/09/02 02:58:44;;;;;;;1.85;1.10;;;14.80;99.90;;;;;;4960501;28;20039;-84
2022/09/02 03:01:21;;;;;;;1.67;0.95;;;14.80;99.90;;;;;;4981519;28;20039;-84
2022/09/02 03:03:52;;;;;;;1.52;0.60;;;14.70;99.90;;;;;;4968813;28;20042;-83
2022/09/02 03:06:28;;;;;;;1.60;0.82;;;14.70;99.90;;;;;;4956591;28;20043;-85
2022/09/02 03:08:55;;;;;;;2.75;0.80;;;14.70;99.90;;;;;;4947416;28;20130;-84
2022/09/02 03:11:27;;;;;;;1.70;0.90;;;14.70;99.90;;;;;;4967904;28;20421;-84
2022/09/02 03:13:58;;;;;;;1.75;0.63;;;14.70;99.90;;;;;;4968231;28;20125;-84
2022/09/02 03:16:29;;;;;;;2.33;0.93;;;14.70;99.90;;;;;;4958737;28;20039;-84
2022/09/02 03:18:57;;;;;;;2.00;0.85;;;14.70;99.90;;;;;;4958208;28;20105;-85
2022/09/02 03:21:35;;;;;;;1.15;0.70;;;14.70;99.90;;;;;;4962339;28;22479;-84
2022/09/02 03:24:00;;;;;;;1.20;0.68;;;14.70;99.90;;;;;;4968109;28;20049;-84
2022/09/02 03:26:44;;;;;;;2.25;1.00;;;14.60;99.90;;;;;;4962347;28;20047;-85
2022/09/02 03:29:22;;;;;;;1.42;0.70;;;14.60;99.90;;;;;;4946977;28;20042;-84
2022/09/02 03:31:47;;;;;;;1.50;0.80;;;14.60;99.90;;;;;;4965231;28;20185;-84
2022/09/02 03:34:18;;;;;;;3.13;0.93;;;14.60;99.90;;;;;;4968384;28;20046;-84
2022/09/02 03:36:58;;;;;;;1.92;0.90;;;14.60;99.90;;;;;;4949665;28;20045;-85
2022/09/02 03:39:34;;;;;;;3.92;0.73;;;14.50;99.90;;;;;;4964508;28;20047;-84
2022/09/02 03:42:13;;;;;;;;;;;;;;;;;;;;;
2022/09/02 03:44:47;;;;;;;1.10;0.63;;;14.50;99.90;;;;;;4968720;28;20049;-84
2022/09/02 03:47:19;;;;;;;0.88;0.60;;;14.50;99.90;;;;;;4947365;28;20042;-84
2022/09/02 03:49:45;;;;;;;1.45;0.70;;;14.50;99.90;;;;;;4966662;28;20628;-84
2022/09/02 03:52:35;;;;;;;1.88;0.90;;;14.30;99.90;;;;;;4966299;28;20031;-85
2022/09/02 03:55:03;;;;;;;2.03;0.90;;;14.40;99.90;;;;;;4937128;28;20050;-84
2022/09/02 03:57:33;;;;;;;1.10;0.70;;;14.40;99.90;;;;;;4972409;28;20043;-83
2022/09/02 04:00:01;;;;;;;1.48;0.85;;;14.30;99.90;;;;;;4949547;28;20066;-82
2022/09/02 04:02:27;;;;;;;1.63;0.88;;;14.30;99.90;;;;;;4951159;28;20133;-84
2022/09/02 04:04:57;;;;;;;1.85;0.98;;;14.20;99.90;;;;;;4968843;28;20117;-84
2022/09/02 04:07:29;;;;;;;2.30;1.00;;;14.20;99.90;;;;;;4949539;28;20062;-84
2022/09/02 04:09:58;;;;;;;1.40;0.77;;;14.10;99.90;;;;;;4955417;28;20039;-84
2022/09/02 04:12:23;;;;;;;1.58;0.75;;;14.20;99.90;;;;;;4964861;28;20038;-84
2022/09/02 04:14:52;;;;;;;2.60;1.02;;;14.30;99.90;;;;;;4975919;28;20402;-84
2022/09/02 04:17:18;;;;;;;1.77;0.90;;;14.10;99.90;;;;;;4971097;28;20042;-85
2022/09/02 04:19:49;;;;;;;1.90;0.75;;;14.10;99.90;;;;;;4955983;28;20683;-84
2022/09/02 04:22:15;;;;;;;2.33;1.10;;;14.10;99.90;;;;;;4951104;28;20745;-84
2022/09/02 04:24:48;;;;;;;2.53;1.10;;;14.10;99.90;;;;;;4946485;28;20121;-84
2022/09/02 04:27:16;;;;;;;1.58;0.95;;;14.00;99.90;;;;;;4945217;28;20047;-83
2022/09/02 04:29:55;;;;;;;2.00;0.90;;;14.00;99.90;;;;;;4950378;28;20039;-84
2022/09/02 04:32:25;;;;;;;2.10;0.93;;;14.00;99.90;;;;;;4964039;28;20110;-84
2022/09/02 04:34:53;;;;;;;1.83;1.00;;;13.90;99.90;;;;;;4951406;28;20104;-84
2022/09/02 04:37:21;;;;;;;1.05;0.77;;;13.90;99.90;;;;;;4963755;28;20045;-84
2022/09/02 04:39:54;;;;;;;1.77;1.00;;;13.90;99.90;;;;;;4948042;28;20048;-84
2022/09/02 04:42:20;;;;;;;1.58;1.00;;;13.90;99.90;;;;;;4949557;28;20034;-83
2022/09/02 04:44:57;;;;;;;2.70;1.02;;;13.70;99.90;;;;;;4940010;28;20495;-84
2022/09/02 04:47:41;;;;;;;;;;;;;;;;;;;;;
2022/09/02 04:50:10;;;;;;;1.52;0.98;;;13.90;99.90;;;;;;4963069;28;20046;-85
2022/09/02 04:52:50;;;;;;;2.13;1.00;;;13.80;99.90;;;;;;4967283;28;20257;-85
2022/09/02 04:55:24;;;;;;;2.83;1.00;;;13.80;99.90;;;;;;4947429;28;20046;-85
2022/09/02 04:57:52;;;;;;;1.65;0.90;;;13.80;99.90;;;;;;4965854;28;20499;-84
2022/09/02 05:00:18;;;;;;;1.92;1.00;;;13.80;99.90;;;;;;4961220;28;20043;-85
2022/09/02 05:02:44;;;;;;;2.60;1.08;;;13.80;99.90;;;;;;4962755;28;20035;-83
2022/09/02 05:05:12;;;;;;;4.93;1.05;;;13.70;99.90;;;;;;4950151;28;20058;-84
2022/09/02 05:07:39;;;;;;;1.60;0.90;;;13.80;99.90;;;;;;4964806;28;20127;-84
2022/09/02 05:10:13;;;;;;;1.75;1.00;;;13.70;99.90;;;;;;4950856;28;20141;-83
2022/09/02 05:12:45;;;;;;;1.40;0.95;;;13.60;99.90;;;;;;4950444;28;20149;-84
2022/09/02 05:15:14;;;;;;;4.70;1.40;;;13.70;99.90;;;;;;4967551;28;20102;-84
2022/09/02 05:18:02;;;;;;;2.00;1.10;;;13.70;99.90;;;;;;4959662;28;20298;-84
2022/09/02 05:20:28;;;;;;;1.70;0.93;;;13.70;99.90;;;;;;4952354;28;20153;-84
2022/09/02 05:22:54;;;;;;;2.55;1.08;;;13.70;99.90;;;;;;4965203;28;20051;-83
2022/09/02 05:27:47;;;;;;;2.08;1.00;;;13.70;99.90;;;;;;5001037;28;19932;-75
2022/09/02 05:30:13;;;;;;;0.88;0.70;;;13.70;99.90;;;;;;4998828;28;20042;-75
2022/09/02 05:32:40;;;;;;;2.30;0.98;;;13.70;99.90;;;;;;4973727;28;20038;-74
2022/09/02 05:35:07;;;;;;;2.20;1.00;;;13.70;99.90;;;;;;4993169;28;20068;-75
2022/09/02 05:37:34;;;;;;;1.48;0.90;;;13.70;99.90;;;;;;5002299;28;20119;-75
2022/09/02 05:40:00;;;;;;;2.50;1.10;;;13.70;99.90;;;;;;4998885;28;20033;-75
2022/09/02 05:42:25;;;;;;;1.90;0.95;;;13.80;99.90;;;;;;4986229;28;20052;-72
2022/09/02 05:44:51;;;;;;;2.70;0.90;;;13.80;99.90;;;;;;4974416;28;20429;-73
2022/09/02 05:47:17;;;;;;;2.38;1.13;;;13.80;99.90;;;;;;4980098;28;20295;-72
2022/09/02 05:49:43;;;;;;;1.80;0.97;;;13.80;99.90;;;;;;5004439;28;20046;-73
2022/09/02 05:52:11;;;;;;;2.47;1.10;;;13.90;99.90;;;;;;4984431;28;20061;-73
2022/09/02 05:54:38;;;;;;;3.28;1.15;;;13.90;99.90;;;;;;4980125;28;20107;-74
2022/09/02 05:57:08;;;;;;;2.08;0.90;;;13.90;99.90;;;;;;4982816;28;20238;-72
2022/09/02 05:59:40;;;;;;;1.75;1.13;;;13.90;99.90;;;;;;4979659;28;20242;-75
2022/09/02 06:02:06;;;;;;;1.70;0.90;;;13.90;99.90;;;;;;4982785;28;20057;-75
2022/09/02 06:04:41;;;;;;;1.42;0.93;;;13.90;99.90;;;;;;4998524;28;20144;-75
2022/09/02 06:07:07;;;;;;;2.45;1.05;;;14.00;99.90;;;;;;4982719;28;20333;-75
2022/09/02 06:09:33;;;;;;;1.70;0.80;;;14.00;99.90;;;;;;4966234;28;20577;-75
2022/09/02 06:11:59;;;;;;;4.65;1.10;;;14.00;99.90;;;;;;4999630;28;20357;-75
2022/09/02 06:14:25;;;;;;;1.63;1.00;;;14.10;99.90;;;;;;4981907;28;20050;-75
2022/09/02 06:16:53;;;;;;;2.17;0.88;;;14.10;99.90;;;;;;4982349;28;20050;-75
2022/09/02 06:19:20;;;;;;;1.50;1.05;;;14.20;99.90;;;;;;4998495;28;20407;-76
2022/09/02 06:21:47;;;;;;;2.50;1.02;;;14.20;99.90;;;;;;4996728;28;20073;-75
2022/09/02 06:24:12;;;;;;;1.63;0.93;;;14.30;99.90;;;;;;4986358;28;20050;-75
2022/09/02 06:26:40;;;;;;;1.35;0.93;;;14.30;99.90;;;;;;5004751;28;20041;-72
2022/09/02 06:29:07;;;;;;;1.88;0.95;;;14.30;99.90;;;;;;5001398;28;20098;-72
2022/09/02 06:31:33;;;;;;;1.08;0.82;;;14.40;99.90;;;;;;4996577;28;20125;-73
2022/09/02 06:33:59;;;;;;;2.83;1.30;;;14.40;99.90;;;;;;4985103;28;20508;-73
2022/09/02 06:36:27;;;;;;;4.05;0.95;;;14.50;99.90;;;;;;4995888;28;20207;-73
2022/09/02 06:38:56;;;;;;;1.75;1.00;;;14.50;99.90;;;;;;4997641;28;20292;-72
2022/09/02 06:41:28;;;;;;;2.40;1.27;;;14.50;99.90;;;;;;5003508;28;20427;-72
2022/09/02 06:43:56;;;;;;;1.58;0.95;;;14.60;99.90;;;;;;4994223;28;20042;-73
2022/09/02 06:46:25;;;;;;;1.20;0.80;;;14.60;99.90;;;;;;4997512;28;20038;-73
2022/09/02 06:48:51;;;;;;;4.70;1.10;;;14.70;99.90;;;;;;4999762;28;20149;-73
2022/09/02 06:51:22;;;;;;;3.08;1.08;;;14.70;99.90;;;;;;4997399;28;20065;-73
2022/09/02 06:53:48;;;;;;;2.72;1.13;;;14.80;99.90;;;;;;5001592;28;20045;-73
2022/09/02 06:56:13;;;;;;;1.63;0.93;;;14.90;99.90;;;;;;5003651;28;20283;-72
2022/09/02 06:58:39;;;;;;;1.90;1.30;;;14.90;99.90;;;;;;4994416;28;20048;-73
2022/09/02 07:01:06;;;;;;;1.88;1.13;;;15.00;99.90;;;;;;4985832;28;20057;-73
2022/09/02 07:06:17;;;;;;;2.13;1.10;;;15.10;99.90;;;;;;4979558;28;20290;-73
2022/09/02 07:08:43;;;;;;;1.92;0.88;;;15.20;99.90;;;;;;4975528;28;20310;-73
2022/09/02 07:11:19;;;;;;;2.13;1.20;;;15.30;99.90;;;;;;4998569;28;20046;-73
2022/09/02 07:13:45;;;;;;;2.00;1.02;;;15.40;99.90;;;;;;4983296;28;20133;-73
2022/09/02 07:16:11;;;;;;;3.42;1.20;;;15.40;99.90;;;;;;4998496;28;20124;-73
2022/09/02 07:18:37;;;;;;;1.77;1.13;;;15.50;99.90;;;;;;5000553;28;20072;-73
2022/09/02 07:21:03;;;;;;;1.33;0.80;;;15.60;99.90;;;;;;4986197;28;20049;-74
2022/09/02 07:23:29;;;;;;;1.98;1.00;;;15.70;99.90;;;;;;4971567;28;20050;-73
2022/09/02 07:25:54;;;;;;;1.80;0.90;;;15.80;99.90;;;;;;4987067;28;20147;-73
2022/09/02 07:28:21;;;;;;;3.63;1.00;;;15.80;99.90;;;;;;4996030;28;20677;-74
2022/09/02 07:30:47;;;;;;;1.70;1.10;;;15.90;99.90;;;;;;4999900;28;20041;-73
2022/09/02 07:33:14;;;;;;;2.28;1.05;;;16.00;99.90;;;;;;5002466;28;20073;-73
2022/09/02 07:35:41;;;;;;;3.00;0.98;;;16.10;99.90;;;;;;4997368;28;20060;-78
2022/09/02 07:38:07;;;;;;;1.30;0.80;;;16.20;99.90;;;;;;4983203;28;20192;-77
2022/09/02 07:40:35;;;;;;;2.00;0.70;;;16.30;99.90;;;;;;4985635;28;20061;-76
2022/09/02 07:43:03;;;;;;;5.60;0.80;;;16.30;99.90;;;;;;4985990;28;20045;-75
2022/09/02 07:45:30;;;;;;;1.65;0.75;;;16.40;99.90;;;;;;4985970;28;20068;-75
2022/09/02 07:47:55;;;;;;;3.45;1.00;;;16.50;99.90;;;;;;4997859;28;20110;-76
2022/09/02 07:50:25;;;;;;;0.85;0.60;;;16.50;99.90;;;;;;4984216;28;20514;-79
2022/09/02 07:52:55;;;;;;;1.30;0.82;;;16.70;99.90;;;;;;4990386;28;20041;-77
2022/09/02 07:55:22;;;;;;;1.35;0.80;;;16.80;99.90;;;;;;4971372;28;20108;-73
2022/09/02 07:57:50;;;;;;;1.90;0.98;;;16.90;99.90;;;;;;4979603;28;20654;-74
2022/09/02 08:00:18;;;;;;;1.55;0.88;;;17.00;99.90;;;;;;4983542;28;20057;-75
2022/09/02 08:02:44;;;;;;;1.67;0.90;;;17.10;99.90;;;;;;4987548;28;20037;-75
2022/09/02 08:05:11;;;;;;;6.03;1.00;;;17.20;99.90;;;;;;4995821;28;20096;-74
2022/09/02 08:07:37;;;;;;;1.50;0.88;;;17.20;99.90;;;;;;5001353;28;20034;-73
2022/09/02 08:10:06;;;;;;;3.33;1.00;;;17.40;99.90;;;;;;4983815;28;20045;-73
2022/09/02 08:12:31;;;;;;;1.65;0.70;;;17.50;99.90;;;;;;5002849;28;20037;-73
2022/09/02 08:14:57;;;;;;;2.30;0.73;;;17.50;99.90;;;;;;4983124;28;20042;-75
2022/09/02 08:17:23;;;;;;;1.00;0.57;;;17.60;99.90;;;;;;4981792;28;20057;-74
2022/09/02 08:19:49;;;;;;;2.10;0.80;;;17.70;99.90;;;;;;4998169;28;20045;-77
2022/09/02 08:22:14;;;;;;;1.63;0.77;;;17.80;99.90;;;;;;4985009;28;20127;-74
2022/09/02 08:24:40;;;;;;;3.30;0.70;;;17.90;99.90;;;;;;5001801;28;20121;-74
2022/09/02 08:27:05;;;;;;;2.42;0.60;;;18.00;99.90;;;;;;4998920;28;20053;-75
2022/09/02 08:29:31;;;;;;;5.80;0.82;;;18.20;99.90;;;;;;4983406;28;20042;-79
2022/09/02 08:31:57;;;;;;;1.73;0.65;;;18.20;99.90;;;;;;4983163;28;20056;-75
2022/09/02 08:34:22;;;;;;;8.85;1.73;;;18.30;99.90;;;;;;4994504;28;20540;-74
2022/09/02 08:36:48;;;;;;;4.90;1.20;;;18.40;99.90;;;;;;4978152;28;20441;-74
2022/09/02 08:39:13;;;;;;;7.70;1.33;;;18.60;99.90;;;;;;4974091;28;20503;-74
2022/09/02 08:41:52;;;;;;;3.90;1.00;;;18.60;99.90;;;;;;4980180;28;20069;-74
2022/09/02 08:44:23;;;;;;;3.25;0.80;;;18.80;99.90;;;;;;4998266;28;20046;-74
2022/09/02 08:46:55;;;;;;;1.65;0.90;;;18.90;99.90;;;;;;4981845;28;20727;-74
2022/09/02 08:49:37;;;;;;;2.63;1.10;;;19.00;99.90;;;;;;5006614;28;20073;-74
2022/09/02 08:52:03;;;;;;;3.95;0.85;;;19.10;99.90;;;;;;5000999;28;20121;-74
2022/09/02 08:54:30;;;;;;;6.10;1.33;;;19.20;99.90;;;;;;4977493;28;20058;-74
2022/09/02 08:56:56;;;;;;;;;;;19.40;99.90;;;;;;5002242;28;20407;-74
2022/09/02 08:59:26;;;;;;;4.10;0.80;;;19.40;99.90;;;;;;4986504;28;19971;-75
2022/09/02 09:02:00;;;;;;;1.10;0.60;;;19.50;99.90;;;;;;4985521;28;20200;-74
2022/09/02 09:04:42;;;;;;;0.63;0.40;;;19.60;99.90;;;;;;4984544;28;20104;-74
2022/09/02 09:07:27;;;;;;;1.17;0.50;;;19.70;99.90;;;;;;4984622;28;20384;-74
2022/09/02 09:10:10;;;;;;;3.88;0.60;;;19.80;99.90;;;;;;4988248;28;20046;-74
2022/09/02 09:12:38;;;;;;;8.52;1.92;;;19.90;99.90;;;;;;5006115;28;20514;-74
2022/09/02 09:15:07;;;;;;;4.47;0.90;;;20.00;99.90;;;;;;4983772;28;20046;-75
2022/09/02 09:17:38;;;;;;;1.02;0.65;;;20.20;99.90;;;;;;4984585;28;20069;-74
2022/09/02 09:20:11;;;;;;;2.72;1.48;;;20.30;99.90;;;;;;4995810;28;20500;-74
2022/09/02 09:22:39;;;;;;;14.23;2.08;;;20.30;99.90;;;;;;5004024;28;20041;-74
2022/09/02 09:25:10;;;;;;;7.90;2.00;;;20.40;99.90;;;;;;4987780;28;20045;-74
2022/09/02 09:27:35;;;;;;;5.50;1.17;;;20.50;99.90;;;;;;5004793;28;20048;-74
2022/09/02 09:30:02;;;;;;;3.33;0.70;;;20.60;99.90;;;;;;4982277;28;20360;-74
2022/09/02 09:32:28;;;;;;;;;;;20.70;99.90;;;;;;5006335;28;20037;-73
2022/09/02 09:35:00;;;;;;;4.43;1.02;;;20.70;99.90;;;;;;4999467;28;19917;-74
2022/09/02 09:37:38;;;;;;;2.72;1.15;;;20.80;99.90;;;;;;5000472;28;20046;-75
2022/09/02 09:40:19;;;;;;;11.05;1.13;;;21.00;99.90;;;;;;4983710;28;20364;-74
2022/09/02 09:42:46;;;;;;;4.95;0.90;;;21.00;99.90;;;;;;5005456;28;20046;-74
2022/09/02 09:45:24;;;;;;;2.35;0.82;;;21.10;99.90;;;;;;4990671;28;20050;-74
2022/09/02 09:48:15;;;;;;;1.10;0.50;;;21.30;99.20;;;;;;5004874;28;20049;-74
2022/09/02 09:50:47;;;;;;;1.33;0.38;;;21.50;98.60;;;;;;4988376;28;20061;-74
2022/09/02 09:53:20;;;;;;;2.17;0.57;;;21.60;98.60;;;;;;5001077;28;20041;-74
2022/09/02 09:55:49;;;;;;;1.17;0.30;;;21.60;97.50;;;;;;4987199;28;20048;-74
2022/09/02 09:58:15;;;;;;;2.42;0.70;;;21.70;97.40;;;;;;5003356;28;20042;-74
2022/09/02 10:00:41;;;;;;;;;;;21.80;97.40;;;;;;5003191;28;20152;-74
2022/09/02 10:03:07;;;;;;;0.60;0.40;;;21.90;96.80;;;;;;4993307;28;20414;-74
2022/09/02 10:05:39;;;;;;;3.33;0.63;;;22.00;96.90;;;;;;4996440;28;20546;-74
2022/09/02 10:08:20;;;;;;;3.63;0.65;;;22.00;95.80;;;;;;4987109;28;20101;-74
2022/09/02 10:11:05;;;;;;;2.50;0.40;;;22.20;92.50;;;;;;5000478;28;20480;-74
2022/09/02 10:13:33;;;;;;;2.08;0.80;;;22.40;93.10;;;;;;4989327;28;20038;-74
2022/09/02 10:16:26;;;;;;;1.83;0.55;;;22.40;92.60;;;;;;4971928;28;20050;-74
2022/09/02 10:19:11;;;;;;;2.55;0.68;;;22.50;92.90;;;;;;4986223;28;20077;-74
2022/09/02 10:22:21;;;;;;;1.42;0.52;;;22.60;91.00;;;;;;5005359;28;20030;-75
2022/09/02 10:25:06;;;;;;;2.15;0.47;;;22.70;91.40;;;;;;4987634;28;20049;-75
2022/09/02 10:28:02;;;;;;;1.70;1.15;;;22.80;91.00;;;;;;4989413;28;20088;-74
2022/09/02 10:30:35;;;;;;;1.88;0.50;;;22.90;90.70;;;;;;5001942;28;20132;-75
2022/09/02 10:33:03;;;;;;;1.80;0.50;;;23.00;90.20;;;;;;4997975;28;20093;-74
2022/09/02 10:35:45;;;;;;;1.02;0.50;;;23.10;85.60;;;;;;5001357;28;20143;-74
2022/09/02 10:38:33;;;;;;;1.85;0.63;;;23.20;85.80;;;;;;4960124;28;20049;-74
2022/09/02 10:41:05;;;;;;;0.88;0.40;;;23.30;84.10;;;;;;4995991;28;20054;-74
2022/09/02 10:43:50;;;;;;;1.38;0.40;;;23.40;85.40;;;;;;4985438;28;20049;-74
2022/09/02 10:46:23;;;;;;;0.88;0.52;;;23.50;81.90;;;;;;4981276;28;20290;-74
2022/09/02 10:49:22;;;;;;;4.47;1.00;;;23.50;82.60;;;;;;4987677;28;20456;-74
2022/09/02 10:52:21;;;;;;;5.78;0.98;;;23.60;82.40;;;;;;4989483;28;20050;-74
2022/09/02 10:55:06;;;;;;;2.40;0.57;;;23.70;81.60;;;;;;4998387;28;20038;-74
2022/09/02 10:57:44;;;;;;;2.97;0.90;;;23.90;75.90;;;;;;4990350;28;20494;-74
2022/09/02 11:00:21;;;;;;;2.35;0.93;;;24.00;78.80;;;;;;5000265;28;20164;-75
2022/09/02 11:03:11;;;;;;;2.45;0.70;;;24.00;77.40;;;;;;4985389;28;20050;-74
2022/09/02 11:05:48;;;;;;;1.52;0.52;;;24.10;74.80;;;;;;4986133;28;20050;-74
2022/09/02 11:08:24;;;;;;;1.10;0.40;;;24.20;76.10;;;;;;4994162;28;20042;-75
2022/09/02 11:11:03;;;;;;;1.15;0.40;;;24.30;75.30;;;;;;5002991;28;20038;-74
2022/09/02 11:13:50;;;;;;;2.20;0.47;;;24.40;74.00;;;;;;4999769;28;20050;-74
2022/09/02 11:16:34;;;;;;;3.53;0.60;;;24.50;72.70;;;;;;5001393;28;20389;-74
2022/09/02 11:19:16;;;;;;;1.55;0.70;;;24.50;72.00;;;;;;4979306;28;20144;-74
2022/09/02 11:22:16;;;;;;;1.02;0.40;;;24.60;68.30;;;;;;5002671;28;20111;-74
2022/09/02 11:24:59;;;;;;;0.75;0.40;;;24.70;68.60;;;;;;5002679;23;20038;-70
2022/09/02 11:27:55;;;;;;;0.80;0.43;;;24.80;68.40;;;;;;5023029;28;20049;-70
2022/09/02 11:30:26;;;;;;;2.47;0.40;;;24.80;69.40;;;;;;5016884;28;20090;-70
2022/09/02 11:33:03;;;;;;;0.93;0.30;;;24.90;68.10;;;;;;5024768;28;20033;-70
2022/09/02 11:35:36;;;;;;;1.15;0.50;;;25.00;66.00;;;;;;5020313;28;20041;-70
2022/09/02 11:38:10;;;;;;;3.05;0.50;;;25.10;67.00;;;;;;5019096;28;20046;-70
2022/09/02 11:40:48;;;;;;;1.33;0.50;;;25.10;65.80;;;;;;5023740;28;20091;-70
2022/09/02 11:43:51;;;;;;;1.77;0.40;;;25.20;65.90;;;;;;5019003;28;20050;-71
2022/09/02 11:46:38;;;;;;;1.85;0.38;;;25.30;65.90;;;;;;5016024;28;20123;-70
2022/09/02 11:49:30;;;;;;;2.05;0.50;;;25.40;64.70;;;;;;5024988;28;20041;-70
2022/09/02 11:52:07;;;;;;;1.35;0.60;;;25.50;63.70;;;;;;5003277;28;20458;-70
2022/09/02 11:54:43;;;;;;;1.35;0.35;;;25.60;62.90;;;;;;5023519;28;20041;-71
2022/09/02 11:57:14;;;;;;;1.92;0.52;;;25.70;62.10;;;;;;5023360;28;20073;-70
2022/09/02 11:59:49;;;;;;;2.90;0.50;;;25.70;62.20;;;;;;5020829;28;20041;-70
2022/09/02 12:02:33;;;;;;;1.98;0.70;;;25.80;62.40;;;;;;5017852;28;20045;-70
2022/09/02 12:05:30;;;;;;;2.50;0.57;;;25.80;61.70;;;;;;5000172;28;20048;-70
2022/09/02 12:08:04;;;;;;;0.98;0.47;;;26.00;59.80;;;;;;5020296;28;20041;-71
2022/09/02 12:10:42;;;;;;;1.38;0.43;;;26.00;60.30;;;;;;5005343;28;20045;-70
2022/09/02 12:13:32;;;;;;;1.45;0.57;;;26.20;60.30;;;;;;5023493;28;20553;-71
2022/09/02 12:16:18;;;;;;;2.42;0.63;;;26.20;57.90;;;;;;5022088;28;20092;-71
2022/09/02 12:19:07;;;;;;;2.60;1.27;;;26.30;58.20;;;;;;5020900;28;20211;-70
2022/09/02 12:21:34;;;;;;;1.55;0.43;;;26.40;59.10;;;;;;4999159;28;20189;-71
2022/09/02 12:24:00;;;;;;;1.95;0.60;;;26.40;58.10;;;;;;5024243;28;20052;-70
2022/09/02 12:26:49;;;;;;;1.67;0.52;;;26.60;57.80;;;;;;5024546;28;20132;-71
2022/09/02 12:29:18;;;;;;;2.25;0.60;;;26.60;57.40;;;;;;5019477;28;20052;-70
2022/09/02 12:31:46;;;;;;;1.17;0.50;;;26.70;56.40;;;;;;5023960;28;20432;-71
2022/09/02 12:34:23;;;;;;;0.98;0.45;;;26.80;56.00;;;;;;5025424;28;20049;-70
2022/09/02 12:36:53;;;;;;;1.17;0.35;;;26.80;56.50;;;;;;5018402;28;20048;-70
2022/09/02 12:39:26;;;;;;;0.85;0.50;;;26.80;56.00;;;;;;5022843;28;20441;-70
2022/09/02 12:42:06;;;;;;;3.28;0.70;;;26.90;55.60;;;;;;5023606;28;20041;-70
2022/09/02 12:44:53;;;;;;;2.38;0.60;;;27.00;55.30;;;;;;5022284;28;20514;-71
2022/09/02 12:47:22;;;;;;;0.50;0.30;;;27.10;55.40;;;;;;5022647;28;20056;-70
2022/09/02 12:50:15;;;;;;;1.02;0.40;;;27.20;55.70;;;;;;5023769;28;20056;-71
2022/09/02 12:52:43;;;;;;;1.40;0.63;;;27.30;55.50;;;;;;5024622;28;20147;-70
2022/09/02 12:55:25;;;;;;;1.00;0.52;;;27.40;54.80;;;;;;5021329;28;20618;-71
2022/09/02 12:57:53;;;;;;;1.85;0.50;;;27.40;53.60;;;;;;5023390;28;20038;-71
2022/09/02 13:00:42;;;;;;;1.27;0.60;;;27.50;53.40;;;;;;5021135;28;20056;-71
2022/09/02 13:03:35;;;;;;;2.28;0.60;;;27.50;51.00;;;;;;5018420;28;20049;-70
2022/09/02 13:06:29;;;;;;;1.33;0.40;;;27.60;52.80;;;;;;5017824;28;20050;-71
2022/09/02 13:09:18;;;;;;;1.50;0.55;;;27.60;52.30;;;;;;5022843;28;20433;-70
2022/09/02 13:12:15;;;;;;;1.02;0.65;;;27.70;52.70;;;;;;5021302;28;20402;-71
2022/09/02 13:14:57;;;;;;;1.38;0.40;;;27.80;50.20;;;;;;5020441;28;20045;-71
2022/09/02 13:17:45;;;;;;;0.75;0.47;;;27.80;50.90;;;;;;5020341;28;20056;-71
2022/09/02 13:20:18;;;;;;;1.58;0.40;;;27.90;50.30;;;;;;5019131;28;20306;-70
2022/09/02 13:22:47;;;;;;;1.35;0.52;;;27.90;51.20;;;;;;5024766;28;20049;-70
2022/09/02 13:25:28;;;;;;;1.60;0.63;;;28.00;50.70;;;;;;5012855;28;20137;-71
2022/09/02 13:28:12;;;;;;;1.83;0.70;;;28.00;50.20;;;;;;5018195;28;20049;-71